Time;durP1;ratioP1;P1;durP2;ratioP2;P2;SDS_P1;SDS_P2;PMS_P1;PMS_P2;Temp;Humidity;BMP_temperature;BMP_pressure;BME280_temperature;BME280_humidity;BME280_pressure;Samples;Min_cycle;Max_cycle;Signal;HPM_P1;HPM_P2
2022/05/19 00:00:30;;;;;;;5.05;3.15;;;;;;;;;;4943199;29;20210;-39
2022/05/19 00:03:02;;;;;;;9.43;3.40;;;;;;;;;;4959448;29;20625;-39
2022/05/19 00:05:30;;;;;;;6.57;3.40;;;;;;;;;;4959256;29;20657;-41
2022/05/19 00:07:56;;;;;;;8.23;3.72;;;;;;;;;;4960004;29;20211;-39
2022/05/19 00:10:24;;;;;;;13.82;3.97;;;;;;;;;;4959213;29;20618;-39
2022/05/19 00:12:52;;;;;;;10.40;3.53;;;;;;;;;;4959510;29;20203;-39
2022/05/19 00:15:19;;;;;;;6.15;3.38;;;;;;;;;;4959535;29;20223;-39
2022/05/19 00:17:46;;;;;;;10.43;3.35;;;;;;;;;;4958920;29;20258;-39
2022/05/19 00:20:13;;;;;;;9.10;3.30;;;;;;;;;;4959421;29;20641;-39
2022/05/19 00:22:40;;;;;;;8.98;3.25;;;;;;;;;;4959374;29;20235;-40
2022/05/19 00:25:07;;;;;;;7.93;3.33;;;;;;;;;;4959014;29;20207;-39
2022/05/19 00:27:34;;;;;;;8.02;3.17;;;;;;;;;;4958974;29;20199;-39
2022/05/19 00:30:02;;;;;;;4.65;3.05;;;;;;;;;;4958905;29;20291;-39
2022/05/19 00:32:29;;;;;;;12.52;3.38;;;;;;;;;;4942483;29;20286;-39
2022/05/19 00:34:56;;;;;;;9.82;3.53;;;;;;;;;;4959079;29;20255;-38
2022/05/19 00:37:23;;;;;;;9.90;3.90;;;;;;;;;;4959541;29;20498;-40
2022/05/19 00:39:50;;;;;;;8.95;3.60;;;;;;;;;;4958356;29;20207;-39
2022/05/19 00:45:04;;;;;;;8.82;3.20;;;;;;;;;;4959386;29;20223;-39
2022/05/19 00:47:39;;;;;;;5.28;2.83;;;;;;;;;;4941962;29;20235;-39
2022/05/19 00:50:10;;;;;;;5.43;2.70;;;;;;;;;;4942080;29;20207;-39
2022/05/19 00:52:40;;;;;;;6.65;3.47;;;;;;;;;;4942165;29;20516;-39
2022/05/19 00:55:11;;;;;;;7.03;3.20;;;;;;;;;;4941882;29;20302;-39
2022/05/19 00:57:43;;;;;;;8.68;3.60;;;;;;;;;;4942005;29;20250;-39
2022/05/19 01:00:19;;;;;;;8.07;3.45;;;;;;;;;;4958713;29;20219;-40
2022/05/19 01:02:50;;;;;;;6.15;3.28;;;;;;;;;;4958216;29;20218;-39
2022/05/19 01:05:23;;;;;;;10.25;3.50;;;;;;;;;;4958407;29;20211;-39
2022/05/19 01:07:54;;;;;;;5.18;3.40;;;;;;;;;;4941838;29;20218;-40
2022/05/19 01:10:22;;;;;;;6.28;3.42;;;;;;;;;;4958203;29;20199;-41
2022/05/19 01:12:51;;;;;;;7.22;3.70;;;;;;;;;;4958261;29;20751;-41
2022/05/19 01:15:18;;;;;;;5.28;3.47;;;;;;;;;;4958060;29;20298;-41
2022/05/19 01:17:45;;;;;;;9.00;4.30;;;;;;;;;;4941421;29;20648;-39
2022/05/19 01:20:18;;;;;;;9.63;4.28;;;;;;;;;;4958073;29;20247;-39
2022/05/19 01:22:54;;;;;;;10.27;4.63;;;;;;;;;;4958196;29;20195;-39
2022/05/19 01:25:25;;;;;;;9.90;4.55;;;;;;;;;;4958096;29;20210;-39
2022/05/19 01:27:52;;;;;;;12.15;3.78;;;;;;;;;;4957681;29;20642;-39
2022/05/19 01:30:19;;;;;;;5.50;3.50;;;;;;;;;;4940929;29;20670;-39
2022/05/19 01:32:47;;;;;;;8.60;4.22;;;;;;;;;;4957863;29;20657;-39
2022/05/19 01:35:14;;;;;;;4.93;3.38;;;;;;;;;;4958349;29;20239;-39
2022/05/19 01:37:41;;;;;;;10.13;3.92;;;;;;;;;;4957849;29;20203;-38
2022/05/19 01:41:04;;;;;;;9.25;4.38;;;;;;;;;;4941628;29;20516;-39
2022/05/19 01:43:49;;;;;;;9.40;4.70;;;;;;;;;;4935705;29;20582;-39
2022/05/19 01:46:22;;;;;;;9.98;5.30;;;;;;;;;;4956903;29;20223;-39
2022/05/19 01:48:59;;;;;;;8.27;5.07;;;;;;;;;;4957582;29;20213;-38
2022/05/19 01:51:34;;;;;;;10.10;5.15;;;;;;;;;;4940762;29;20581;-42
2022/05/19 01:54:10;;;;;;;11.52;4.85;;;;;;;;;;4957592;29;20258;-40
2022/05/19 01:57:00;;;;;;;7.53;4.63;;;;;;;;;;4957103;29;20261;-39
2022/05/19 01:59:33;;;;;;;9.98;5.55;;;;;;;;;;4956930;29;20532;-39
2022/05/19 02:02:11;;;;;;;8.93;4.70;;;;;;;;;;4957173;29;20615;-40
2022/05/19 02:04:58;;;;;;;9.93;4.50;;;;;;;;;;4940530;29;20221;-41
2022/05/19 02:07:26;;;;;;;11.60;5.35;;;;;;;;;;4940338;29;20192;-39
2022/05/19 02:10:00;;;;;;;10.98;5.15;;;;;;;;;;4940380;29;20231;-40
2022/05/19 02:12:31;;;;;;;9.88;4.90;;;;;;;;;;4940711;29;20203;-39
2022/05/19 02:15:00;;;;;;;8.90;4.53;;;;;;;;;;4956665;28;20227;-38
2022/05/19 02:17:28;;;;;;;10.18;4.53;;;;;;;;;;4956519;29;20235;-39
2022/05/19 02:20:00;;;;;;;11.48;4.82;;;;;;;;;;4940071;29;20207;-39
2022/05/19 02:22:32;;;;;;;9.25;4.60;;;;;;;;;;4939990;29;20225;-40
2022/05/19 02:25:19;;;;;;;11.45;5.40;;;;;;;;;;4955695;29;20609;-39
2022/05/19 02:28:05;;;;;;;8.55;4.38;;;;;;;;;;4956554;29;20653;-39
2022/05/19 02:30:34;;;;;;;9.98;5.15;;;;;;;;;;4955725;29;20250;-39
2022/05/19 02:33:01;;;;;;;12.13;5.63;;;;;;;;;;4956455;29;20200;-43
2022/05/19 02:35:29;;;;;;;11.63;5.13;;;;;;;;;;4950807;29;20228;-39
2022/05/19 02:37:57;;;;;;;10.70;5.07;;;;;;;;;;4936061;29;20216;-41
2022/05/19 02:40:28;;;;;;;9.80;4.97;;;;;;;;;;4935194;29;20199;-39
2022/05/19 02:42:55;;;;;;;10.55;5.30;;;;;;;;;;4937086;29;20214;-40
2022/05/19 02:45:22;;;;;;;9.85;5.07;;;;;;;;;;4936911;29;20227;-39
2022/05/19 02:47:50;;;;;;;9.73;5.13;;;;;;;;;;4936112;29;20231;-40
2022/05/19 02:50:20;;;;;;;10.95;4.95;;;;;;;;;;4937151;29;20204;-39
2022/05/19 02:52:48;;;;;;;8.10;4.57;;;;;;;;;;4937589;29;20212;-39
2022/05/19 02:55:15;;;;;;;12.32;5.22;;;;;;;;;;4936986;29;20662;-39
2022/05/19 02:57:43;;;;;;;9.25;4.68;;;;;;;;;;4937065;29;20216;-39
2022/05/19 03:00:15;;;;;;;9.50;4.22;;;;;;;;;;4937308;29;20216;-39
2022/05/19 03:02:43;;;;;;;7.82;4.63;;;;;;;;;;4937339;29;20208;-40
2022/05/19 03:05:13;;;;;;;11.02;5.50;;;;;;;;;;4937706;29;20252;-39
2022/05/19 03:07:40;;;;;;;9.23;4.38;;;;;;;;;;4937227;29;20212;-39
2022/05/19 03:10:09;;;;;;;9.82;4.93;;;;;;;;;;4937786;29;20306;-38
2022/05/19 03:12:36;;;;;;;8.55;4.90;;;;;;;;;;4937258;29;20200;-39
2022/05/19 03:15:04;;;;;;;6.85;4.30;;;;;;;;;;4937096;29;20257;-38
2022/05/19 03:17:31;;;;;;;9.90;4.55;;;;;;;;;;4937907;29;20204;-39
2022/05/19 03:19:58;;;;;;;9.48;5.07;;;;;;;;;;4937470;29;20287;-40
2022/05/19 03:22:26;;;;;;;12.35;4.43;;;;;;;;;;4937128;29;20215;-40
2022/05/19 03:24:54;;;;;;;8.18;4.40;;;;;;;;;;4937393;29;20220;-40
2022/05/19 03:27:21;;;;;;;8.40;4.35;;;;;;;;;;4937883;29;20216;-39
2022/05/19 03:29:49;;;;;;;9.68;4.55;;;;;;;;;;4940685;29;20231;-39
2022/05/19 03:32:17;;;;;;;7.20;3.97;;;;;;;;;;4960089;29;20235;-41
2022/05/19 03:34:43;;;;;;;7.30;4.18;;;;;;;;;;4960151;29;20597;-39
2022/05/19 03:37:12;;;;;;;10.13;4.18;;;;;;;;;;4960132;29;20207;-39
2022/05/19 03:39:39;;;;;;;7.75;4.28;;;;;;;;;;4959910;29;20203;-40
2022/05/19 03:42:07;;;;;;;12.05;4.53;;;;;;;;;;4960016;29;20223;-39
2022/05/19 03:44:36;;;;;;;8.93;4.10;;;;;;;;;;4959845;29;20278;-42
2022/05/19 03:47:04;;;;;;;10.35;4.50;;;;;;;;;;4960146;29;20724;-39
2022/05/19 03:49:31;;;;;;;10.20;4.22;;;;;;;;;;4959659;29;20592;-39
2022/05/19 03:51:58;;;;;;;8.52;4.30;;;;;;;;;;4959576;29;20203;-39
2022/05/19 03:54:25;;;;;;;11.57;4.55;;;;;;;;;;4959398;29;20716;-39
2022/05/19 03:56:52;;;;;;;11.63;4.55;;;;;;;;;;4959212;29;20259;-41
2022/05/19 03:59:19;;;;;;;9.00;4.43;;;;;;;;;;4957911;28;20203;-39
2022/05/19 04:01:46;;;;;;;8.90;4.60;;;;;;;;;;4955387;28;20331;-39
2022/05/19 04:04:13;;;;;;;10.02;4.75;;;;;;;;;;4958668;29;20318;-39
2022/05/19 04:06:42;;;;;;;8.20;4.70;;;;;;;;;;4958262;29;20232;-40
2022/05/19 04:09:09;;;;;;;11.93;4.35;;;;;;;;;;4958442;29;20243;-41
2022/05/19 04:11:36;;;;;;;10.93;4.22;;;;;;;;;;4957976;29;20231;-39
2022/05/19 04:14:04;;;;;;;16.00;4.57;;;;;;;;;;4958552;29;20242;-42
2022/05/19 04:16:31;;;;;;;11.18;4.00;;;;;;;;;;4957929;29;20235;-40
2022/05/19 04:18:58;;;;;;;9.13;4.68;;;;;;;;;;4958233;29;20625;-38
2022/05/19 04:21:25;;;;;;;10.18;4.43;;;;;;;;;;4958205;29;20232;-40
2022/05/19 04:23:52;;;;;;;14.20;4.40;;;;;;;;;;4958122;29;20678;-40
2022/05/19 04:26:19;;;;;;;9.90;4.00;;;;;;;;;;4957363;28;20269;-39
2022/05/19 04:28:46;;;;;;;6.53;3.92;;;;;;;;;;4958022;29;20231;-39
2022/05/19 04:31:12;;;;;;;13.63;4.72;;;;;;;;;;4957445;28;20393;-39
2022/05/19 04:33:39;;;;;;;11.13;4.50;;;;;;;;;;4958003;29;20302;-39
2022/05/19 04:36:07;;;;;;;9.98;4.20;;;;;;;;;;4958129;28;20595;-40
2022/05/19 04:38:34;;;;;;;9.45;4.65;;;;;;;;;;4957195;28;20242;-39
2022/05/19 04:41:03;;;;;;;9.48;4.38;;;;;;;;;;4957988;28;20231;-41
2022/05/19 04:43:31;;;;;;;9.85;4.72;;;;;;;;;;4955502;29;20224;-46
2022/05/19 04:45:58;;;;;;;8.43;4.88;;;;;;;;;;4952092;29;20541;-41
2022/05/19 04:48:25;;;;;;;7.72;4.22;;;;;;;;;;4956586;29;20223;-43
2022/05/19 04:50:57;;;;;;;11.13;4.00;;;;;;;;;;4951685;29;20227;-42
2022/05/19 04:53:25;;;;;;;9.57;4.50;;;;;;;;;;4956104;29;20227;-42
2022/05/19 04:55:53;;;;;;;9.45;4.40;;;;;;;;;;4956610;29;20247;-44
2022/05/19 04:58:21;;;;;;;9.55;4.55;;;;;;;;;;4956894;29;20682;-43
2022/05/19 05:00:49;;;;;;;10.27;4.55;;;;;;;;;;4956420;29;20318;-41
2022/05/19 05:03:16;;;;;;;10.77;4.88;;;;;;;;;;4952362;29;20238;-42
2022/05/19 05:05:44;;;;;;;7.40;4.30;;;;;;;;;;4956745;29;20681;-42
2022/05/19 05:08:12;;;;;;;9.77;4.47;;;;;;;;;;4957096;29;20259;-41
2022/05/19 05:10:39;;;;;;;18.23;5.25;;;;;;;;;;4956704;29;20215;-41
2022/05/19 05:13:08;;;;;;;7.28;4.47;;;;;;;;;;4957042;29;20219;-42
2022/05/19 05:15:35;;;;;;;11.82;4.45;;;;;;;;;;4951044;29;20237;-43
2022/05/19 05:18:04;;;;;;;13.88;4.75;;;;;;;;;;4956882;29;20262;-42
2022/05/19 05:20:33;;;;;;;10.85;4.68;;;;;;;;;;4956625;29;20219;-44
2022/05/19 05:23:01;;;;;;;11.77;4.43;;;;;;;;;;4956689;29;20227;-41
2022/05/19 05:25:29;;;;;;;9.20;4.95;;;;;;;;;;4956180;29;20701;-41
2022/05/19 05:27:57;;;;;;;8.25;4.55;;;;;;;;;;4954397;29;20223;-42
2022/05/19 05:30:25;;;;;;;10.35;4.53;;;;;;;;;;4956568;29;20247;-43
2022/05/19 05:32:58;;;;;;;7.45;4.13;;;;;;;;;;4951377;29;20669;-41
2022/05/19 05:35:25;;;;;;;6.55;4.22;;;;;;;;;;4940491;29;20239;-42
2022/05/19 05:37:52;;;;;;;6.50;4.18;;;;;;;;;;4957174;29;20573;-41
2022/05/19 05:40:21;;;;;;;11.77;5.30;;;;;;;;;;4957733;29;20236;-42
2022/05/19 05:42:48;;;;;;;10.93;6.05;;;;;;;;;;4957359;29;20645;-41
2022/05/19 05:45:15;;;;;;;12.70;4.60;;;;;;;;;;4957395;29;20254;-40
2022/05/19 05:47:42;;;;;;;11.32;5.03;;;;;;;;;;4957635;29;20557;-40
2022/05/19 05:50:12;;;;;;;10.85;4.72;;;;;;;;;;4957109;28;20208;-40
2022/05/19 05:52:39;;;;;;;8.77;4.70;;;;;;;;;;4957521;29;20588;-42
2022/05/19 05:55:06;;;;;;;8.90;5.03;;;;;;;;;;4957143;29;20653;-41
2022/05/19 05:57:33;;;;;;;8.00;4.82;;;;;;;;;;4957764;29;20286;-40
2022/05/19 06:00:01;;;;;;;11.48;4.63;;;;;;;;;;4956984;29;20214;-40
2022/05/19 06:02:38;;;;;;;11.50;5.70;;;;;;;;;;4957420;29;20210;-42
2022/05/19 06:05:09;;;;;;;12.32;5.68;;;;;;;;;;4957626;29;20203;-41
2022/05/19 06:07:36;;;;;;;8.68;4.93;;;;;;;;;;4957176;29;20618;-42
2022/05/19 06:10:04;;;;;;;10.32;5.45;;;;;;;;;;4957262;29;20618;-40
2022/05/19 06:12:31;;;;;;;11.40;5.03;;;;;;;;;;4957495;29;20250;-41
2022/05/19 06:15:05;;;;;;;10.98;5.35;;;;;;;;;;4957646;29;20539;-41
2022/05/19 06:17:32;;;;;;;12.00;5.05;;;;;;;;;;4956974;29;20238;-41
2022/05/19 06:19:59;;;;;;;8.27;5.28;;;;;;;;;;4956899;29;20294;-41
2022/05/19 06:22:26;;;;;;;12.73;4.95;;;;;;;;;;4957033;29;20596;-41
2022/05/19 06:24:53;;;;;;;10.20;4.68;;;;;;;;;;4956797;29;20211;-41
2022/05/19 06:27:20;;;;;;;8.27;4.30;;;;;;;;;;4957062;29;20230;-41
2022/05/19 06:29:47;;;;;;;6.70;4.72;;;;;;;;;;4956507;29;20218;-41
2022/05/19 06:32:15;;;;;;;9.50;4.10;;;;;;;;;;4957427;29;20721;-41
2022/05/19 06:34:43;;;;;;;6.93;4.25;;;;;;;;;;4956238;29;20211;-41
2022/05/19 06:37:10;;;;;;;12.95;4.72;;;;;;;;;;4956942;29;20250;-41
2022/05/19 06:39:37;;;;;;;7.00;3.95;;;;;;;;;;4956570;29;20227;-41
2022/05/19 06:42:04;;;;;;;6.75;4.10;;;;;;;;;;4956710;29;20214;-41
2022/05/19 06:44:37;;;;;;;13.25;4.50;;;;;;;;;;4956790;29;20203;-41
2022/05/19 06:47:10;;;;;;;11.77;3.70;;;;;;;;;;4956735;29;20282;-42
2022/05/19 06:49:40;;;;;;;5.53;3.63;;;;;;;;;;4956895;29;20214;-40
2022/05/19 06:52:13;;;;;;;8.07;3.75;;;;;;;;;;4956678;29;20223;-41
2022/05/19 06:54:45;;;;;;;15.27;3.00;;;;;;;;;;4956810;29;20271;-41
2022/05/19 06:57:12;;;;;;;10.07;3.80;;;;;;;;;;4956657;29;20565;-42
2022/05/19 06:59:40;;;;;;;6.60;3.40;;;;;;;;;;4956335;29;20208;-41
2022/05/19 07:02:09;;;;;;;10.57;4.32;;;;;;;;;;4958720;28;20207;-41
2022/05/19 07:04:37;;;;;;;6.82;3.33;;;;;;;;;;4960372;29;20211;-41
2022/05/19 07:07:04;;;;;;;6.32;2.88;;;;;;;;;;4960805;29;20211;-41
2022/05/19 07:09:33;;;;;;;7.00;2.92;;;;;;;;;;4960609;29;20278;-42
2022/05/19 07:12:00;;;;;;;6.88;2.67;;;;;;;;;;4960491;29;20244;-41
2022/05/19 07:14:27;;;;;;;5.38;2.53;;;;;;;;;;4960107;29;20203;-41
2022/05/19 07:16:55;;;;;;;7.72;2.45;;;;;;;;;;4960944;29;20249;-41
2022/05/19 07:22:14;;;;;;;7.57;2.63;;;;;;;;;;4960614;29;20247;-41
2022/05/19 07:24:43;;;;;;;6.40;2.65;;;;;;;;;;4959982;29;20207;-41
2022/05/19 07:27:10;;;;;;;8.38;2.90;;;;;;;;;;4959937;29;20215;-41
2022/05/19 07:29:37;;;;;;;9.38;2.40;;;;;;;;;;4960239;29;20207;-41
2022/05/19 07:32:04;;;;;;;8.45;2.60;;;;;;;;;;4959917;29;20317;-44
2022/05/19 07:34:33;;;;;;;8.98;2.38;;;;;;;;;;4958819;29;20603;-41
2022/05/19 07:37:00;;;;;;;4.32;2.50;;;;;;;;;;4959545;29;20227;-41
2022/05/19 07:39:27;;;;;;;5.00;2.60;;;;;;;;;;4959909;29;20621;-41
2022/05/19 07:41:55;;;;;;;9.57;2.40;;;;;;;;;;4960821;29;20282;-41
2022/05/19 07:44:24;;;;;;;8.65;3.78;;;;;;;;;;4960043;29;20203;-42
2022/05/19 07:46:52;;;;;;;5.47;3.00;;;;;;;;;;4960053;29;20235;-41
2022/05/19 07:49:19;;;;;;;4.82;2.80;;;;;;;;;;4959685;29;20211;-41
2022/05/19 07:51:47;;;;;;;4.60;2.13;;;;;;;;;;4959689;29;20216;-41
2022/05/19 07:54:26;;;;;;;8.10;2.17;;;;;;;;;;4959700;29;20290;-41
2022/05/19 07:56:54;;;;;;;8.23;2.50;;;;;;;;;;4942905;29;20235;-41
2022/05/19 07:59:22;;;;;;;13.90;4.35;;;;;;;;;;4959519;29;20211;-43
2022/05/19 08:01:49;;;;;;;11.13;4.68;;;;;;;;;;4959521;29;20588;-41
2022/05/19 08:04:20;;;;;;;7.90;4.35;;;;;;;;;;4959357;29;20215;-41
2022/05/19 08:06:47;;;;;;;9.32;4.22;;;;;;;;;;4959305;29;20278;-41
2022/05/19 08:12:01;;;;;;;7.95;4.97;;;;;;;;;;4959194;29;20211;-41
2022/05/19 08:17:31;;;;;;;6.78;4.40;;;;;;;;;;4959426;29;20238;-41
2022/05/19 08:19:59;;;;;;;12.15;5.50;;;;;;;;;;4959255;29;20207;-41
2022/05/19 08:22:26;;;;;;;10.82;4.88;;;;;;;;;;4959205;29;20207;-42
2022/05/19 08:24:53;;;;;;;9.70;4.57;;;;;;;;;;4958927;29;20207;-42
2022/05/19 08:27:20;;;;;;;8.13;3.72;;;;;;;;;;4959105;29;20355;-41
2022/05/19 08:29:47;;;;;;;11.80;4.32;;;;;;;;;;4959053;29;20266;-43
2022/05/19 08:32:14;;;;;;;4.40;2.40;;;;;;;;;;4959212;29;20625;-41
2022/05/19 08:34:41;;;;;;;8.50;2.85;;;;;;;;;;4958979;29;20222;-42
2022/05/19 08:37:08;;;;;;;9.68;2.50;;;;;;;;;;4959296;29;20227;-41
2022/05/19 08:39:35;;;;;;;5.53;2.33;;;;;;;;;;4958954;29;20222;-41
2022/05/19 08:42:04;;;;;;;5.53;2.08;;;;;;;;;;4958554;29;20227;-41
2022/05/19 08:44:41;;;;;;;2.78;1.75;;;;;;;;;;4957737;29;20254;-41
2022/05/19 08:47:12;;;;;;;5.18;1.90;;;;;;;;;;4959119;29;20262;-41
2022/05/19 08:49:44;;;;;;;4.05;2.20;;;;;;;;;;4958130;29;20202;-42
2022/05/19 08:52:16;;;;;;;5.53;2.13;;;;;;;;;;4958977;29;20196;-41
2022/05/19 08:54:49;;;;;;;4.57;2.08;;;;;;;;;;4958395;29;20199;-42
2022/05/19 08:57:21;;;;;;;10.90;6.78;;;;;;;;;;4957914;29;20376;-41
2022/05/19 08:59:58;;;;;;;7.35;3.70;;;;;;;;;;4941770;29;20211;-41
2022/05/19 09:02:35;;;;;;;10.25;4.65;;;;;;;;;;4958250;29;20195;-41
2022/05/19 09:05:06;;;;;;;3.75;2.50;;;;;;;;;;4941876;29;20207;-41
2022/05/19 09:08:15;;;;;;;11.15;2.67;;;;;;;;;;4942232;29;20215;-41
2022/05/19 09:10:49;;;;;;;4.32;3.00;;;;;;;;;;4957379;28;20207;-41
2022/05/19 09:13:23;;;;;;;7.38;5.50;;;;;;;;;;4958254;29;20518;-41
2022/05/19 09:15:52;;;;;;;5.03;3.58;;;;;;;;;;4958661;29;20306;-42
2022/05/19 09:18:34;;;;;;;3.33;2.35;;;;;;;;;;4957170;29;20231;-41
2022/05/19 09:21:03;;;;;;;11.57;2.63;;;;;;;;;;4957020;29;20626;-41
2022/05/19 09:23:31;;;;;;;5.20;2.78;;;;;;;;;;4958058;29;20218;-41
2022/05/19 09:26:08;;;;;;;8.00;3.03;;;;;;;;;;4941395;29;20212;-41
2022/05/19 09:28:36;;;;;;;6.32;3.25;;;;;;;;;;4940957;29;20219;-41
2022/05/19 09:31:03;;;;;;;6.85;2.75;;;;;;;;;;4950700;28;20592;-40
2022/05/19 09:33:35;;;;;;;4.28;2.85;;;;;;;;;;4977276;28;20211;-41
2022/05/19 09:36:11;;;;;;;4.88;2.95;;;;;;;;;;4977216;28;20191;-41
2022/05/19 09:38:49;;;;;;;6.07;2.55;;;;;;;;;;4977714;28;20194;-41
2022/05/19 09:41:23;;;;;;;6.72;2.95;;;;;;;;;;4961013;28;20207;-41
2022/05/19 09:43:55;;;;;;;5.57;2.42;;;;;;;;;;4977049;28;20222;-41
2022/05/19 09:46:23;;;;;;;5.28;2.75;;;;;;;;;;4976833;28;20198;-41
2022/05/19 09:49:03;;;;;;;2.40;2.20;;;;;;;;;;4976640;28;20206;-41
2022/05/19 09:51:42;;;;;;;3.17;2.00;;;;;;;;;;4977156;28;20186;-41
2022/05/19 09:54:13;;;;;;;11.20;4.40;;;;;;;;;;4977167;28;20198;-41
2022/05/19 09:56:49;;;;;;;4.35;2.97;;;;;;;;;;4976806;28;20237;-41
2022/05/19 09:59:23;;;;;;;6.60;1.75;;;;;;;;;;4960448;28;20202;-41
2022/05/19 10:01:55;;;;;;;3.45;2.10;;;;;;;;;;4960046;28;20656;-41
2022/05/19 10:04:39;;;;;;;3.17;1.70;;;;;;;;;;4961048;28;20222;-41
2022/05/19 10:07:17;;;;;;;2.78;1.70;;;;;;;;;;4976532;28;20218;-42
2022/05/19 10:09:46;;;;;;;3.85;1.60;;;;;;;;;;4960336;28;20215;-42
2022/05/19 10:12:21;;;;;;;3.72;2.63;;;;;;;;;;4976607;28;20221;-41
2022/05/19 10:15:00;;;;;;;2.78;1.35;;;;;;;;;;4976297;28;20653;-42
2022/05/19 10:18:04;;;;;;;8.02;1.15;;;;;;;;;;4976442;28;20234;-41
2022/05/19 10:20:35;;;;;;;1.45;1.10;;;;;;;;;;4976688;28;20191;-41
2022/05/19 10:23:58;;;;;;;1.50;1.10;;;;;;;;;;4962390;28;20233;-42
2022/05/19 10:26:48;;;;;;;2.63;1.13;;;;;;;;;;4958903;28;20292;-41
2022/05/19 10:33:18;;;;;;;5.47;1.60;;;;;;;;;;4935049;28;20358;-42
2022/05/19 10:36:25;;;;;;;1.65;1.10;;;;;;;;;;4960198;28;20540;-41
2022/05/19 10:39:02;;;;;;;2.95;1.17;;;;;;;;;;4976690;28;20277;-42
2022/05/19 10:41:42;;;;;;;11.27;1.20;;;;;;;;;;4976318;28;20198;-41
2022/05/19 10:44:32;;;;;;;6.22;1.10;;;;;;;;;;4959751;28;20202;-41
2022/05/19 10:47:14;;;;;;;5.35;1.42;;;;;;;;;;4976143;28;20207;-41
2022/05/19 10:50:08;;;;;;;3.95;1.02;;;;;;;;;;4975830;28;20195;-41
2022/05/19 10:53:06;;;;;;;2.33;0.90;;;;;;;;;;4976186;28;20222;-42
2022/05/19 10:55:58;;;;;;;1.92;1.42;;;;;;;;;;4976250;28;20218;-41
2022/05/19 10:58:30;;;;;;;2.50;1.08;;;;;;;;;;4976121;28;20233;-41
2022/05/19 11:01:31;;;;;;;2.10;0.90;;;;;;;;;;4975938;28;20644;-41
2022/05/19 11:04:08;;;;;;;7.00;1.05;;;;;;;;;;4959107;28;20206;-41
2022/05/19 11:07:18;;;;;;;2.97;1.30;;;;;;;;;;4975801;28;20202;-42
2022/05/19 11:10:04;;;;;;;2.42;1.33;;;;;;;;;;4957262;28;20237;-42
2022/05/19 11:12:42;;;;;;;2.22;1.00;;;;;;;;;;4958976;28;20203;-41
2022/05/19 11:15:25;;;;;;;1.95;1.20;;;;;;;;;;4975922;28;20195;-41
2022/05/19 11:18:23;;;;;;;5.25;1.50;;;;;;;;;;4975926;28;20222;-41
2022/05/19 11:20:53;;;;;;;2.15;1.50;;;;;;;;;;4976444;28;20214;-42
2022/05/19 11:23:43;;;;;;;1.92;1.30;;;;;;;;;;4975779;28;20211;-41
2022/05/19 11:26:29;;;;;;;2.88;1.10;;;;;;;;;;4956686;28;20202;-41
2022/05/19 11:29:11;;;;;;;4.53;1.60;;;;;;;;;;4976270;28;20210;-41
2022/05/19 11:31:41;;;;;;;3.30;1.35;;;;;;;;;;4976122;28;20235;-41
2022/05/19 11:34:20;;;;;;;3.53;1.80;;;;;;;;;;4958715;28;20191;-42
2022/05/19 11:37:06;;;;;;;7.45;1.58;;;;;;;;;;4959211;28;20221;-42
2022/05/19 11:39:37;;;;;;;7.18;1.65;;;;;;;;;;4959052;28;20203;-42
2022/05/19 11:42:33;;;;;;;4.97;1.45;;;;;;;;;;4934946;28;20219;-43
2022/05/19 11:45:01;;;;;;;1.55;1.17;;;;;;;;;;4952801;29;20227;-41
2022/05/19 11:56:20;;;;;;;2.65;1.20;;;;;;;;;;4945156;29;20235;-41
2022/05/19 11:58:47;;;;;;;2.97;1.27;;;;;;;;;;4959781;29;20383;-41
2022/05/19 12:01:27;;;;;;;3.85;1.20;;;;;;;;;;4958872;29;20287;-41
2022/05/19 12:04:15;;;;;;;7.55;1.10;;;;;;;;;;4958637;29;20261;-42
2022/05/19 12:06:54;;;;;;;3.28;1.00;;;;;;;;;;4959662;29;20553;-41
2022/05/19 12:09:23;;;;;;;1.77;0.82;;;;;;;;;;4959683;28;20226;-41
2022/05/19 12:11:57;;;;;;;11.35;1.23;;;;;;;;;;4960234;28;20215;-41
2022/05/19 12:14:24;;;;;;;5.43;0.80;;;;;;;;;;4958676;28;20650;-42
2022/05/19 12:16:55;;;;;;;9.18;1.00;;;;;;;;;;4960174;29;20293;-41
2022/05/19 12:19:31;;;;;;;2.30;1.00;;;;;;;;;;4959436;29;20203;-46
2022/05/19 12:22:00;;;;;;;2.03;1.00;;;;;;;;;;4959713;29;20207;-41
2022/05/19 12:24:52;;;;;;;1.35;1.08;;;;;;;;;;4957572;29;20199;-43
2022/05/19 12:27:23;;;;;;;2.65;0.90;;;;;;;;;;4941907;29;20234;-42
2022/05/19 12:33:15;;;;;;;4.75;1.10;;;;;;;;;;4905851;29;20240;-42
2022/05/19 12:35:48;;;;;;;4.10;1.20;;;;;;;;;;4939325;29;20255;-43
2022/05/19 12:38:34;;;;;;;5.28;1.38;;;;;;;;;;4938480;29;20220;-44
2022/05/19 12:41:08;;;;;;;5.18;1.00;;;;;;;;;;4936625;29;20211;-42
2022/05/19 12:43:37;;;;;;;1.98;1.00;;;;;;;;;;4938096;29;20227;-44
2022/05/19 12:46:07;;;;;;;3.33;1.20;;;;;;;;;;4934670;29;20248;-43
2022/05/19 12:48:34;;;;;;;6.18;1.13;;;;;;;;;;4938243;29;20287;-43
2022/05/19 12:51:13;;;;;;;5.28;1.00;;;;;;;;;;4938500;29;20227;-42
2022/05/19 12:53:52;;;;;;;5.03;1.10;;;;;;;;;;4938564;29;20232;-42
2022/05/19 12:56:46;;;;;;;6.10;1.30;;;;;;;;;;4938160;29;20273;-41
2022/05/19 12:59:23;;;;;;;3.92;1.10;;;;;;;;;;4930893;29;20739;-43
2022/05/19 13:01:53;;;;;;;1.25;0.90;;;;;;;;;;4938342;29;20227;-42
2022/05/19 13:04:23;;;;;;;3.45;1.10;;;;;;;;;;4909378;29;20307;-42
2022/05/19 13:06:56;;;;;;;3.58;1.25;;;;;;;;;;4938759;29;20228;-41
2022/05/19 13:09:26;;;;;;;3.63;1.02;;;;;;;;;;4936769;29;20248;-41
2022/05/19 13:11:55;;;;;;;2.45;1.20;;;;;;;;;;4953329;29;20238;-42
2022/05/19 13:14:32;;;;;;;2.03;1.08;;;;;;;;;;4920047;29;20319;-42
2022/05/19 13:16:59;;;;;;;5.15;1.30;;;;;;;;;;4938241;29;20239;-42
2022/05/19 13:19:30;;;;;;;4.18;1.30;;;;;;;;;;4937909;29;20239;-42
2022/05/19 13:22:18;;;;;;;2.55;1.30;;;;;;;;;;4922574;29;20275;-43
2022/05/19 13:24:46;;;;;;;9.65;1.55;;;;;;;;;;4938125;29;20231;-43
2022/05/19 13:30:23;;;;;;;3.85;1.15;;;;;;;;;;4940122;29;20583;-42
2022/05/19 13:32:51;;;;;;;3.85;1.30;;;;;;;;;;4957315;29;20223;-41
2022/05/19 13:35:23;;;;;;;2.38;1.20;;;;;;;;;;4956805;28;20254;-42
2022/05/19 13:37:50;;;;;;;5.22;1.17;;;;;;;;;;4957147;29;20236;-41
2022/05/19 13:40:28;;;;;;;3.65;1.23;;;;;;;;;;4956632;28;20227;-43
2022/05/19 13:42:58;;;;;;;4.07;1.45;;;;;;;;;;4951741;29;20219;-42
2022/05/19 13:45:32;;;;;;;2.58;1.27;;;;;;;;;;4955886;29;20239;-43
2022/05/19 13:47:59;;;;;;;4.18;1.58;;;;;;;;;;4938174;29;20224;-42
2022/05/19 13:50:28;;;;;;;4.90;1.35;;;;;;;;;;4956060;29;20740;-43
2022/05/19 13:53:01;;;;;;;3.58;1.50;;;;;;;;;;4954003;29;20211;-42
2022/05/19 13:55:30;;;;;;;3.58;1.80;;;;;;;;;;4956097;29;20227;-43
2022/05/19 13:57:58;;;;;;;6.43;1.45;;;;;;;;;;4951285;29;20235;-42
2022/05/19 14:00:27;;;;;;;6.43;1.88;;;;;;;;;;4955113;28;20227;-43
2022/05/19 14:02:57;;;;;;;2.33;1.20;;;;;;;;;;4950844;29;20554;-42
2022/05/19 14:05:30;;;;;;;4.00;1.35;;;;;;;;;;4939098;29;20533;-45
2022/05/19 14:08:02;;;;;;;3.80;1.27;;;;;;;;;;4951546;29;20294;-43
2022/05/19 14:10:55;;;;;;;2.95;1.45;;;;;;;;;;4940856;28;20227;-43
2022/05/19 14:13:25;;;;;;;2.95;1.67;;;;;;;;;;4954943;29;20685;-45
2022/05/19 14:16:08;;;;;;;7.10;1.65;;;;;;;;;;4955343;29;20293;-42
2022/05/19 14:18:40;;;;;;;6.03;1.50;;;;;;;;;;4934679;29;20311;-42
2022/05/19 14:21:10;;;;;;;3.42;1.30;;;;;;;;;;4955849;29;20237;-43
2022/05/19 14:23:52;;;;;;;3.70;1.33;;;;;;;;;;4950983;29;20674;-44
2022/05/19 14:26:25;;;;;;;3.70;1.30;;;;;;;;;;4955620;29;20223;-42
2022/05/19 14:28:53;;;;;;;5.13;1.58;;;;;;;;;;4951303;29;20254;-42
2022/05/19 14:31:31;;;;;;;3.45;1.30;;;;;;;;;;4955196;29;20235;-43
2022/05/19 14:34:02;;;;;;;11.57;1.35;;;;;;;;;;4952938;29;20215;-43
2022/05/19 14:36:52;;;;;;;3.35;1.25;;;;;;;;;;4950154;29;20345;-45
2022/05/19 14:39:24;;;;;;;6.47;1.30;;;;;;;;;;4936322;29;20678;-44
2022/05/19 14:44:40;;;;;;;6.60;1.55;;;;;;;;;;4955004;29;20219;-44
2022/05/19 14:47:35;;;;;;;3.88;1.88;;;;;;;;;;4939362;29;20302;-44
2022/05/19 14:50:15;;;;;;;7.32;1.52;;;;;;;;;;4956193;29;20246;-45
2022/05/19 14:52:50;;;;;;;2.90;1.25;;;;;;;;;;4955991;29;20678;-43
2022/05/19 14:55:20;;;;;;;3.67;1.63;;;;;;;;;;4939215;29;20233;-43
2022/05/19 14:57:50;;;;;;;3.83;1.35;;;;;;;;;;4955293;29;20829;-42
2022/05/19 15:00:20;;;;;;;7.60;1.73;;;;;;;;;;4938783;29;20673;-44
2022/05/19 15:02:49;;;;;;;5.72;1.55;;;;;;;;;;4955970;29;20243;-43
2022/05/19 15:05:17;;;;;;;4.13;1.50;;;;;;;;;;4955491;29;20673;-43
2022/05/19 15:07:53;;;;;;;4.85;1.60;;;;;;;;;;4955158;29;20211;-43
2022/05/19 15:10:25;;;;;;;3.63;1.38;;;;;;;;;;4920607;29;20208;-43
2022/05/19 15:12:53;;;;;;;5.45;1.40;;;;;;;;;;4942965;29;20209;-44
2022/05/19 15:15:21;;;;;;;10.02;1.60;;;;;;;;;;4956496;29;20199;-43
2022/05/19 15:17:48;;;;;;;5.35;1.63;;;;;;;;;;4954186;29;20203;-45
2022/05/19 15:20:20;;;;;;;3.90;1.60;;;;;;;;;;4954516;28;20223;-45
2022/05/19 15:22:51;;;;;;;5.18;1.42;;;;;;;;;;4954940;28;20613;-44
2022/05/19 15:25:19;;;;;;;3.75;1.40;;;;;;;;;;4956332;29;20219;-43
2022/05/19 15:27:46;;;;;;;3.58;1.38;;;;;;;;;;4958489;28;20210;-44
2022/05/19 15:30:17;;;;;;;2.40;1.17;;;;;;;;;;4959181;29;20203;-43
2022/05/19 15:32:45;;;;;;;4.15;1.20;;;;;;;;;;4958423;29;20200;-45
2022/05/19 15:35:13;;;;;;;3.20;1.20;;;;;;;;;;4958019;28;20589;-44
2022/05/19 15:37:40;;;;;;;3.15;1.25;;;;;;;;;;4957239;29;20203;-44
2022/05/19 15:40:13;;;;;;;1.90;1.08;;;;;;;;;;4957056;29;20611;-45
2022/05/19 15:42:40;;;;;;;6.18;1.25;;;;;;;;;;4960268;28;20200;-45